Time;durP1;ratioP1;P1;durP2;ratioP2;P2;SDS_P1;SDS_P2;PMS_P1;PMS_P2;Temp;Humidity;BMP_temperature;BMP_pressure;BME280_temperature;BME280_humidity;BME280_pressure;Samples;Min_cycle;Max_cycle;Signal;HPM_P1;HPM_P2
2023/01/19 00:02:17;;;;;;;3.70;3.08;;;;;;;;;;5064424;28;20050;-40
2023/01/19 00:04:42;;;;;;;3.88;3.38;;;;;;;;;;5064795;28;20028;-41
2023/01/19 00:07:08;;;;;;;3.95;3.00;;;;;;;;;;5063350;28;20068;-41
2023/01/19 00:09:37;;;;;;;4.68;3.20;;;;;;;;;;5065509;28;20048;-40
2023/01/19 00:12:03;;;;;;;3.42;3.13;;;;;;;;;;5062632;28;20051;-41
2023/01/19 00:14:28;;;;;;;3.30;2.88;;;;;;;;;;5064560;28;20393;-41
2023/01/19 00:16:54;;;;;;;4.20;2.75;;;;;;;;;;5063542;28;20029;-41
2023/01/19 00:19:19;;;;;;;3.30;2.90;;;;;;;;;;5062349;28;20135;-41
2023/01/19 00:21:44;;;;;;;3.95;2.90;;;;;;;;;;5064087;28;20385;-42
2023/01/19 00:24:10;;;;;;;3.45;2.90;;;;;;;;;;5064229;28;20061;-42
2023/01/19 00:26:39;;;;;;;3.35;2.88;;;;;;;;;;5064099;28;20094;-41
2023/01/19 00:29:06;;;;;;;3.33;2.72;;;;;;;;;;5065222;28;20558;-41
2023/01/19 00:31:35;;;;;;;3.53;2.40;;;;;;;;;;5063414;28;20419;-41
2023/01/19 00:34:00;;;;;;;4.63;2.50;;;;;;;;;;5062811;28;20554;-41
2023/01/19 00:36:26;;;;;;;3.88;2.92;;;;;;;;;;5063443;28;20112;-41
2023/01/19 00:38:51;;;;;;;3.20;2.50;;;;;;;;;;5061078;28;20045;-41
2023/01/19 00:41:17;;;;;;;3.33;2.78;;;;;;;;;;5064696;28;20056;-41
2023/01/19 00:43:42;;;;;;;2.80;2.40;;;;;;;;;;5064205;28;20508;-43
2023/01/19 00:46:08;;;;;;;9.27;2.78;;;;;;;;;;5064325;28;20383;-41
2023/01/19 00:48:33;;;;;;;2.97;2.63;;;;;;;;;;5065236;28;20044;-40
2023/01/19 00:50:58;;;;;;;2.40;2.20;;;;;;;;;;5066579;28;20037;-41
2023/01/19 00:53:24;;;;;;;3.72;2.85;;;;;;;;;;5066943;28;20047;-41
2023/01/19 00:55:50;;;;;;;3.53;2.72;;;;;;;;;;5067646;28;20029;-42
2023/01/19 00:58:16;;;;;;;3.28;2.30;;;;;;;;;;5065183;28;20051;-41
2023/01/19 01:00:41;;;;;;;3.42;2.50;;;;;;;;;;5067981;28;20162;-41
2023/01/19 01:03:06;;;;;;;2.30;2.10;;;;;;;;;;5068578;28;20048;-40
2023/01/19 01:05:32;;;;;;;3.60;2.38;;;;;;;;;;5068601;28;20044;-43
2023/01/19 01:07:57;;;;;;;5.45;2.35;;;;;;;;;;5065592;28;20585;-41
2023/01/19 01:10:25;;;;;;;5.80;2.40;;;;;;;;;;5067384;28;20036;-41
2023/01/19 01:12:51;;;;;;;2.35;2.15;;;;;;;;;;5068603;28;20048;-41
2023/01/19 01:15:17;;;;;;;2.22;1.95;;;;;;;;;;5068021;28;20465;-41
2023/01/19 01:17:46;;;;;;;2.60;2.00;;;;;;;;;;5067014;28;20036;-41
2023/01/19 01:20:16;;;;;;;3.88;2.28;;;;;;;;;;5067670;28;20070;-41
2023/01/19 01:22:46;;;;;;;3.10;2.15;;;;;;;;;;5064363;28;20040;-44
2023/01/19 01:25:17;;;;;;;3.10;2.00;;;;;;;;;;5068826;28;20036;-42
2023/01/19 01:27:43;;;;;;;2.65;2.08;;;;;;;;;;5066587;28;20059;-41
2023/01/19 01:30:11;;;;;;;2.40;2.05;;;;;;;;;;5067928;28;20424;-40
2023/01/19 01:32:37;;;;;;;2.28;2.08;;;;;;;;;;5063428;28;20458;-41
2023/01/19 01:35:03;;;;;;;3.38;1.98;;;;;;;;;;5066046;28;20036;-41
2023/01/19 01:37:28;;;;;;;4.47;2.20;;;;;;;;;;5066002;28;20504;-41
2023/01/19 01:39:54;;;;;;;2.30;2.10;;;;;;;;;;5066223;28;20066;-41
2023/01/19 01:42:25;;;;;;;2.88;2.33;;;;;;;;;;5065340;28;20031;-41
2023/01/19 01:44:56;;;;;;;2.20;2.00;;;;;;;;;;5064646;28;20035;-41
2023/01/19 01:47:31;;;;;;;2.45;1.85;;;;;;;;;;5066237;28;20040;-41
2023/01/19 01:50:21;;;;;;;1.85;1.75;;;;;;;;;;5067615;28;20052;-41
2023/01/19 01:52:53;;;;;;;2.88;1.80;;;;;;;;;;5065914;28;20393;-41
2023/01/19 01:55:22;;;;;;;1.98;1.60;;;;;;;;;;5067655;28;20037;-42
2023/01/19 01:57:51;;;;;;;3.70;1.90;;;;;;;;;;5065154;28;20041;-41
2023/01/19 02:00:18;;;;;;;3.80;2.13;;;;;;;;;;5066907;28;20044;-41
2023/01/19 02:02:49;;;;;;;1.88;1.77;;;;;;;;;;5065934;28;20064;-41
2023/01/19 02:05:31;;;;;;;3.67;1.73;;;;;;;;;;5068222;28;20397;-41
2023/01/19 02:13:45;;;;;;;4.82;1.50;;;;;;;;;;5060779;28;20044;-41
2023/01/19 02:16:12;;;;;;;2.70;1.65;;;;;;;;;;5060188;28;20099;-41
2023/01/19 02:18:38;;;;;;;3.53;1.65;;;;;;;;;;5066438;28;20040;-41
2023/01/19 02:21:22;;;;;;;3.58;1.30;;;;;;;;;;5065728;28;20048;-41
2023/01/19 02:23:49;;;;;;;2.50;1.70;;;;;;;;;;5067291;28;20043;-41
2023/01/19 02:26:24;;;;;;;2.38;2.00;;;;;;;;;;5066837;28;20020;-41
2023/01/19 02:28:58;;;;;;;2.88;1.63;;;;;;;;;;5064138;28;20048;-40
2023/01/19 02:31:25;;;;;;;1.80;1.40;;;;;;;;;;5064628;28;20047;-41
2023/01/19 02:33:51;;;;;;;2.92;1.65;;;;;;;;;;5067671;28;20492;-41
2023/01/19 02:36:22;;;;;;;5.20;2.05;;;;;;;;;;5063305;28;20469;-41
2023/01/19 02:38:48;;;;;;;1.65;1.55;;;;;;;;;;5063205;28;20045;-41
2023/01/19 02:41:18;;;;;;;4.93;1.52;;;;;;;;;;5064792;28;20111;-41
2023/01/19 02:43:44;;;;;;;2.15;1.73;;;;;;;;;;5061476;28;20044;-41
2023/01/19 02:46:10;;;;;;;2.78;1.55;;;;;;;;;;5062531;28;20040;-43
2023/01/19 02:48:35;;;;;;;1.23;1.13;;;;;;;;;;5064447;28;20037;-41
2023/01/19 02:51:07;;;;;;;3.58;1.73;;;;;;;;;;5067661;28;20097;-41
2023/01/19 02:54:11;;;;;;;1.63;1.17;;;;;;;;;;5066944;28;20047;-40
2023/01/19 02:57:19;;;;;;;2.03;1.35;;;;;;;;;;5052835;28;20033;-41
2023/01/19 03:00:18;;;;;;;2.08;1.40;;;;;;;;;;4980495;28;20092;-41
2023/01/19 03:02:43;;;;;;;1.83;1.10;;;;;;;;;;4980282;28;20117;-41
2023/01/19 03:05:40;;;;;;;1.77;1.40;;;;;;;;;;4983157;28;20146;-41
2023/01/19 03:08:26;;;;;;;1.95;1.85;;;;;;;;;;4983985;28;20065;-46
2023/01/19 03:11:05;;;;;;;4.75;1.75;;;;;;;;;;4981714;28;20046;-40
2023/01/19 03:13:51;;;;;;;3.13;1.50;;;;;;;;;;4984212;28;20046;-40
2023/01/19 03:16:22;;;;;;;1.40;1.30;;;;;;;;;;4985544;28;20038;-40
2023/01/19 03:18:54;;;;;;;1.90;1.58;;;;;;;;;;4984662;28;20129;-40
2023/01/19 03:21:23;;;;;;;2.50;2.10;;;;;;;;;;4985055;28;20030;-41
2023/01/19 03:23:51;;;;;;;1.63;1.52;;;;;;;;;;4985005;28;20464;-41
2023/01/19 03:26:23;;;;;;;1.50;1.05;;;;;;;;;;4981231;28;20038;-41
2023/01/19 03:28:50;;;;;;;2.70;1.85;;;;;;;;;;4984538;28;20133;-41
2023/01/19 03:31:20;;;;;;;3.50;2.03;;;;;;;;;;5048956;28;20484;-41
2023/01/19 03:33:56;;;;;;;1.60;1.50;;;;;;;;;;5066521;28;20047;-42
2023/01/19 03:36:45;;;;;;;1.92;1.67;;;;;;;;;;5063942;28;20277;-41
2023/01/19 03:39:14;;;;;;;2.08;1.58;;;;;;;;;;5062963;28;20056;-41
2023/01/19 03:41:42;;;;;;;4.55;2.40;;;;;;;;;;5066222;28;20028;-42
2023/01/19 03:44:09;;;;;;;2.53;2.33;;;;;;;;;;5065060;28;20126;-41
2023/01/19 03:46:34;;;;;;;4.28;2.20;;;;;;;;;;5064568;28;20027;-40
2023/01/19 03:49:00;;;;;;;3.05;2.15;;;;;;;;;;5061674;28;20052;-41
2023/01/19 03:51:25;;;;;;;3.63;2.50;;;;;;;;;;5065320;28;20431;-41
2023/01/19 03:53:51;;;;;;;1.55;1.45;;;;;;;;;;5061628;28;20040;-41
2023/01/19 03:56:19;;;;;;;2.60;2.40;;;;;;;;;;5064013;28;20064;-41
2023/01/19 03:58:45;;;;;;;2.42;2.10;;;;;;;;;;5063137;28;20084;-41
2023/01/19 04:01:11;;;;;;;2.88;2.38;;;;;;;;;;5063505;28;20093;-41
2023/01/19 04:03:36;;;;;;;7.55;2.03;;;;;;;;;;5063059;28;20051;-41
2023/01/19 04:06:02;;;;;;;2.42;2.17;;;;;;;;;;5064174;28;20085;-41
2023/01/19 04:08:27;;;;;;;4.00;2.35;;;;;;;;;;5062891;28;20182;-41
2023/01/19 04:10:53;;;;;;;2.55;1.95;;;;;;;;;;5062817;28;20511;-41
2023/01/19 04:13:18;;;;;;;5.05;2.22;;;;;;;;;;5062423;28;20107;-41
2023/01/19 04:15:43;;;;;;;2.47;1.98;;;;;;;;;;5061777;28;20045;-41
2023/01/19 04:18:09;;;;;;;5.38;2.05;;;;;;;;;;5061707;28;20072;-40
2023/01/19 04:20:34;;;;;;;3.30;2.05;;;;;;;;;;5064809;28;20025;-41
2023/01/19 04:23:00;;;;;;;1.92;1.73;;;;;;;;;;5064298;28;20045;-41
2023/01/19 04:25:26;;;;;;;3.83;2.50;;;;;;;;;;5066833;28;20040;-41
2023/01/19 04:27:52;;;;;;;2.55;1.60;;;;;;;;;;5066374;28;20140;-41
2023/01/19 04:30:18;;;;;;;2.72;2.20;;;;;;;;;;5066877;28;20353;-41
2023/01/19 04:32:43;;;;;;;2.33;1.80;;;;;;;;;;5066989;28;20047;-41
2023/01/19 04:35:09;;;;;;;5.63;3.78;;;;;;;;;;5066646;28;20028;-41
2023/01/19 04:37:34;;;;;;;4.10;2.50;;;;;;;;;;5069320;28;20028;-41
2023/01/19 04:40:00;;;;;;;3.35;2.78;;;;;;;;;;5068370;28;20078;-41
2023/01/19 04:42:26;;;;;;;4.85;2.17;;;;;;;;;;5066905;28;20024;-43
2023/01/19 04:44:52;;;;;;;3.33;2.47;;;;;;;;;;5066939;28;20516;-40
2023/01/19 04:47:18;;;;;;;2.95;2.22;;;;;;;;;;5066417;28;20035;-41
2023/01/19 04:49:44;;;;;;;3.08;2.10;;;;;;;;;;5065982;28;20032;-41
2023/01/19 04:52:09;;;;;;;2.50;2.30;;;;;;;;;;5067164;28;20119;-39
2023/01/19 04:54:34;;;;;;;2.63;2.42;;;;;;;;;;5066871;28;20400;-43
2023/01/19 04:57:00;;;;;;;3.08;2.63;;;;;;;;;;5067600;28;20155;-41
2023/01/19 04:59:25;;;;;;;3.83;2.45;;;;;;;;;;5068472;28;20345;-41
2023/01/19 05:01:50;;;;;;;2.65;2.30;;;;;;;;;;5067487;28;20090;-41
2023/01/19 05:04:16;;;;;;;3.05;2.40;;;;;;;;;;5066807;28;20052;-41
2023/01/19 05:06:41;;;;;;;6.40;2.13;;;;;;;;;;5064699;28;20438;-41
2023/01/19 05:09:07;;;;;;;2.30;2.10;;;;;;;;;;5064930;28;20044;-41
2023/01/19 05:11:34;;;;;;;2.40;2.20;;;;;;;;;;5067401;28;20052;-41
2023/01/19 05:13:59;;;;;;;2.47;2.28;;;;;;;;;;5056452;28;20459;-41
2023/01/19 05:16:25;;;;;;;2.88;2.45;;;;;;;;;;5063168;28;20128;-41
2023/01/19 05:18:50;;;;;;;5.45;2.42;;;;;;;;;;5064821;28;20041;-40
2023/01/19 05:21:16;;;;;;;3.13;2.10;;;;;;;;;;5063229;28;20475;-41
2023/01/19 05:23:41;;;;;;;2.33;2.10;;;;;;;;;;5064105;28;20496;-41
2023/01/19 05:26:06;;;;;;;2.10;1.90;;;;;;;;;;5064998;28;20090;-41
2023/01/19 05:28:32;;;;;;;5.03;2.20;;;;;;;;;;5063994;28;20169;-46
2023/01/19 05:30:58;;;;;;;3.13;2.55;;;;;;;;;;5068463;28;20048;-41
2023/01/19 05:33:24;;;;;;;2.78;2.08;;;;;;;;;;5067096;28;20121;-41
2023/01/19 05:35:53;;;;;;;3.05;2.20;;;;;;;;;;5069103;28;20103;-41
2023/01/19 05:38:19;;;;;;;5.82;2.30;;;;;;;;;;5066702;28;20040;-41
2023/01/19 05:40:45;;;;;;;2.55;2.20;;;;;;;;;;5066239;28;20073;-41
2023/01/19 05:43:11;;;;;;;2.50;2.30;;;;;;;;;;5065621;28;20496;-41
2023/01/19 05:45:40;;;;;;;5.50;2.03;;;;;;;;;;5067834;28;20029;-40
2023/01/19 05:48:06;;;;;;;2.97;2.22;;;;;;;;;;5063712;28;20060;-41
2023/01/19 05:50:33;;;;;;;11.93;2.30;;;;;;;;;;5067318;28;20052;-41
2023/01/19 05:52:58;;;;;;;4.25;2.00;;;;;;;;;;5067839;28;20124;-41
2023/01/19 05:55:25;;;;;;;3.08;2.40;;;;;;;;;;5064613;28;20140;-41
2023/01/19 05:57:50;;;;;;;2.78;2.30;;;;;;;;;;5066609;28;20090;-41
2023/01/19 06:00:16;;;;;;;6.57;2.60;;;;;;;;;;5063012;28;20056;-41
2023/01/19 06:02:42;;;;;;;3.58;2.70;;;;;;;;;;5068271;28;20110;-41
2023/01/19 06:05:08;;;;;;;2.60;2.00;;;;;;;;;;5063423;28;20035;-42
2023/01/19 06:07:33;;;;;;;2.97;2.60;;;;;;;;;;5065019;28;20044;-42
2023/01/19 06:09:59;;;;;;;4.38;2.28;;;;;;;;;;5069887;28;20036;-41
2023/01/19 06:12:24;;;;;;;2.70;2.40;;;;;;;;;;5065987;28;20045;-42
2023/01/19 06:14:49;;;;;;;2.75;2.28;;;;;;;;;;5061365;28;20040;-41
2023/01/19 06:17:15;;;;;;;3.45;2.20;;;;;;;;;;5063238;28;20059;-44
2023/01/19 06:19:40;;;;;;;2.00;1.85;;;;;;;;;;5064585;28;20074;-46
2023/01/19 06:22:06;;;;;;;3.03;2.00;;;;;;;;;;5068070;28;20111;-41
2023/01/19 06:24:31;;;;;;;3.53;2.28;;;;;;;;;;5062670;28;20180;-43
2023/01/19 06:26:57;;;;;;;3.28;1.85;;;;;;;;;;5043526;28;20025;-41
2023/01/19 06:29:22;;;;;;;3.55;2.20;;;;;;;;;;5064591;28;20056;-41
2023/01/19 06:31:48;;;;;;;1.90;1.75;;;;;;;;;;5064500;28;20033;-41
2023/01/19 06:34:14;;;;;;;4.93;2.50;;;;;;;;;;5066619;28;20396;-41
2023/01/19 06:36:39;;;;;;;3.58;1.88;;;;;;;;;;5065989;28;20048;-44
2023/01/19 06:39:05;;;;;;;2.10;1.95;;;;;;;;;;5063137;28;20190;-41
2023/01/19 06:41:33;;;;;;;1.98;1.83;;;;;;;;;;5060693;28;20040;-41
2023/01/19 06:43:58;;;;;;;5.00;2.13;;;;;;;;;;5062597;28;20045;-41
2023/01/19 06:46:25;;;;;;;4.10;2.03;;;;;;;;;;5064411;28;20139;-41
2023/01/19 06:48:50;;;;;;;3.00;2.20;;;;;;;;;;5061916;28;20040;-40
2023/01/19 06:51:16;;;;;;;3.60;2.22;;;;;;;;;;5062256;28;20036;-41
2023/01/19 06:53:41;;;;;;;3.03;2.38;;;;;;;;;;5057519;28;20041;-46
2023/01/19 06:56:08;;;;;;;2.85;2.28;;;;;;;;;;5064157;28;20059;-41
2023/01/19 06:58:33;;;;;;;6.20;2.88;;;;;;;;;;5062938;28;20044;-41
2023/01/19 07:01:04;;;;;;;3.40;2.28;;;;;;;;;;5067715;28;20020;-41
2023/01/19 07:03:30;;;;;;;2.65;2.40;;;;;;;;;;5046442;28;20071;-43
2023/01/19 07:05:55;;;;;;;4.70;2.33;;;;;;;;;;5063891;28;20488;-41
2023/01/19 07:08:21;;;;;;;3.90;2.03;;;;;;;;;;5061995;28;20123;-41
2023/01/19 07:10:47;;;;;;;2.33;2.10;;;;;;;;;;5062064;28;20484;-44
2023/01/19 07:13:13;;;;;;;2.40;2.20;;;;;;;;;;5059138;28;20052;-42
2023/01/19 07:15:38;;;;;;;3.38;2.15;;;;;;;;;;5061454;28;20108;-41
2023/01/19 07:18:07;;;;;;;3.08;2.40;;;;;;;;;;5059086;28;20054;-41
2023/01/19 07:20:34;;;;;;;3.78;2.55;;;;;;;;;;5063720;28;20028;-41
2023/01/19 07:22:59;;;;;;;2.47;2.28;;;;;;;;;;5059600;28;20515;-41
2023/01/19 07:25:25;;;;;;;3.13;2.08;;;;;;;;;;5061394;28;20021;-41
2023/01/19 07:27:51;;;;;;;4.70;2.20;;;;;;;;;;5065667;28;20392;-41
2023/01/19 07:30:17;;;;;;;2.70;2.20;;;;;;;;;;5063977;28;20029;-41
2023/01/19 07:32:42;;;;;;;2.55;2.20;;;;;;;;;;5063686;28;20036;-41
2023/01/19 07:35:09;;;;;;;6.60;2.50;;;;;;;;;;5062916;28;20032;-41
2023/01/19 07:37:34;;;;;;;2.50;2.30;;;;;;;;;;5063782;28;20507;-41
2023/01/19 07:40:00;;;;;;;3.00;2.28;;;;;;;;;;5064621;28;20032;-41
2023/01/19 07:42:25;;;;;;;2.17;2.00;;;;;;;;;;5063175;28;20071;-41
2023/01/19 07:44:51;;;;;;;4.05;2.10;;;;;;;;;;5066281;28;20384;-40
2023/01/19 07:47:16;;;;;;;3.50;2.10;;;;;;;;;;5061192;28;20530;-40
2023/01/19 07:49:42;;;;;;;2.40;2.20;;;;;;;;;;5062955;28;20139;-41
2023/01/19 07:52:08;;;;;;;4.05;3.00;;;;;;;;;;5063643;28;20416;-41
2023/01/19 07:54:33;;;;;;;4.40;2.15;;;;;;;;;;5063485;28;20285;-41
2023/01/19 07:57:01;;;;;;;1.85;1.73;;;;;;;;;;5066715;28;20025;-41
2023/01/19 07:59:29;;;;;;;2.35;2.15;;;;;;;;;;5064687;28;20119;-41
2023/01/19 08:01:54;;;;;;;3.40;2.42;;;;;;;;;;5061674;28;20028;-41
2023/01/19 08:04:20;;;;;;;2.30;2.10;;;;;;;;;;5063288;28;20032;-39
2023/01/19 08:06:46;;;;;;;6.00;2.45;;;;;;;;;;5064381;28;20114;-41
2023/01/19 08:09:12;;;;;;;3.72;2.40;;;;;;;;;;5062993;28;20051;-40
2023/01/19 08:11:37;;;;;;;3.08;2.50;;;;;;;;;;5064474;28;20025;-41
2023/01/19 08:14:03;;;;;;;3.70;3.30;;;;;;;;;;5062497;28;20041;-41
2023/01/19 08:16:29;;;;;;;2.85;2.55;;;;;;;;;;5063147;28;20037;-42
2023/01/19 08:18:54;;;;;;;4.47;2.13;;;;;;;;;;5062837;28;20039;-40
2023/01/19 08:21:20;;;;;;;4.43;3.35;;;;;;;;;;5062544;28;20032;-41
2023/01/19 08:23:54;;;;;;;6.63;2.22;;;;;;;;;;5063265;28;20037;-41
2023/01/19 08:26:28;;;;;;;2.65;2.40;;;;;;;;;;5063531;28;20094;-41
2023/01/19 08:28:59;;;;;;;4.03;2.20;;;;;;;;;;5064955;28;20037;-41
2023/01/19 08:31:25;;;;;;;3.10;2.13;;;;;;;;;;5060844;28;20048;-41
2023/01/19 08:33:51;;;;;;;5.63;2.33;;;;;;;;;;5064821;28;20037;-41
2023/01/19 08:36:16;;;;;;;2.50;2.08;;;;;;;;;;5063914;28;20033;-41
2023/01/19 08:38:44;;;;;;;4.45;2.95;;;;;;;;;;5063260;28;20790;-41
2023/01/19 08:41:10;;;;;;;4.95;2.55;;;;;;;;;;5059826;28;20472;-41
2023/01/19 08:43:39;;;;;;;3.97;2.50;;;;;;;;;;5064639;28;20051;-41
2023/01/19 08:46:05;;;;;;;2.50;1.90;;;;;;;;;;5065833;28;20045;-41
2023/01/19 08:48:30;;;;;;;7.93;2.25;;;;;;;;;;5063681;28;20098;-41
2023/01/19 08:50:56;;;;;;;3.80;2.78;;;;;;;;;;5062281;28;20078;-41
2023/01/19 08:53:24;;;;;;;2.53;2.33;;;;;;;;;;5063745;28;20787;-41
2023/01/19 08:55:58;;;;;;;4.10;2.40;;;;;;;;;;5061442;28;20124;-41
2023/01/19 08:58:24;;;;;;;2.33;2.13;;;;;;;;;;5061432;28;20072;-41
2023/01/19 09:00:51;;;;;;;3.50;1.90;;;;;;;;;;5062175;28;20486;-40
2023/01/19 09:03:17;;;;;;;3.83;1.95;;;;;;;;;;5063321;28;20547;-41
2023/01/19 09:05:42;;;;;;;5.03;2.10;;;;;;;;;;5062625;28;20029;-41
2023/01/19 09:08:12;;;;;;;3.42;1.80;;;;;;;;;;5064738;28;20037;-41
2023/01/19 09:10:44;;;;;;;7.38;2.80;;;;;;;;;;5064141;28;20025;-41
2023/01/19 09:13:10;;;;;;;7.55;2.20;;;;;;;;;;5068570;28;20535;-41
2023/01/19 09:15:36;;;;;;;3.53;2.05;;;;;;;;;;5066058;28;20025;-40
2023/01/19 09:18:03;;;;;;;2.67;2.20;;;;;;;;;;5065330;28;20137;-41
2023/01/19 09:20:30;;;;;;;2.65;1.92;;;;;;;;;;5068587;28;20108;-42
2023/01/19 09:22:57;;;;;;;6.13;1.90;;;;;;;;;;5048775;28;20515;-41
2023/01/19 09:25:22;;;;;;;5.30;2.10;;;;;;;;;;5068561;28;20035;-41
2023/01/19 09:27:48;;;;;;;2.80;2.00;;;;;;;;;;5068098;28;20127;-41
2023/01/19 09:30:13;;;;;;;2.67;2.05;;;;;;;;;;5065794;28;20036;-41
2023/01/19 09:32:39;;;;;;;3.63;2.15;;;;;;;;;;5064960;28;20505;-41
2023/01/19 09:35:04;;;;;;;3.35;2.20;;;;;;;;;;5064463;28;20087;-40
2023/01/19 09:37:30;;;;;;;3.80;2.97;;;;;;;;;;5066999;28;20047;-40
2023/01/19 09:39:55;;;;;;;2.75;2.20;;;;;;;;;;5068378;28;20427;-41
2023/01/19 09:42:23;;;;;;;3.20;2.03;;;;;;;;;;5065028;28;20025;-40
2023/01/19 09:44:49;;;;;;;3.13;2.13;;;;;;;;;;5065004;28;20083;-42
2023/01/19 09:47:18;;;;;;;1.95;1.75;;;;;;;;;;5061670;28;20056;-40
2023/01/19 09:49:58;;;;;;;2.90;1.73;;;;;;;;;;5065511;28;20025;-41
2023/01/19 09:52:23;;;;;;;2.33;1.90;;;;;;;;;;5066124;28;20424;-40
2023/01/19 09:54:55;;;;;;;2.13;1.70;;;;;;;;;;5066991;28;20028;-41
2023/01/19 09:57:22;;;;;;;1.88;1.52;;;;;;;;;;5067854;28;20477;-40
2023/01/19 09:59:50;;;;;;;2.60;1.83;;;;;;;;;;5066631;28;20056;-41
2023/01/19 10:02:32;;;;;;;3.72;1.92;;;;;;;;;;5061499;28;20029;-40
2023/01/19 10:05:20;;;;;;;2.20;1.73;;;;;;;;;;5065655;28;20081;-41
2023/01/19 10:07:51;;;;;;;2.13;1.85;;;;;;;;;;5061439;28;20044;-41
2023/01/19 10:10:21;;;;;;;4.00;2.50;;;;;;;;;;5064619;28;20559;-45
2023/01/19 10:13:27;;;;;;;6.03;2.15;;;;;;;;;;5064778;28;20405;-41
2023/01/19 10:16:13;;;;;;;3.80;2.42;;;;;;;;;;5067152;28;20405;-41
2023/01/19 10:18:52;;;;;;;3.70;1.65;;;;;;;;;;5064410;28;20040;-41
2023/01/19 10:21:23;;;;;;;3.42;1.80;;;;;;;;;;5064423;28;20036;-41
2023/01/19 10:23:57;;;;;;;2.05;1.52;;;;;;;;;;5062582;28;20587;-41
2023/01/19 10:26:33;;;;;;;3.42;2.25;;;;;;;;;;5066850;28;20078;-49
2023/01/19 10:29:05;;;;;;;2.42;2.17;;;;;;;;;;5062136;28;20041;-43
2023/01/19 10:31:34;;;;;;;9.25;1.60;;;;;;;;;;5066373;28;20079;-40
2023/01/19 10:33:59;;;;;;;5.80;1.70;;;;;;;;;;5060223;28;20032;-41
2023/01/19 10:36:36;;;;;;;2.22;1.80;;;;;;;;;;5061703;28;20031;-41
2023/01/19 10:39:05;;;;;;;3.30;1.92;;;;;;;;;;5064562;28;20029;-40
2023/01/19 10:41:41;;;;;;;1.77;1.48;;;;;;;;;;5065466;28;20021;-43
2023/01/19 10:44:09;;;;;;;2.90;1.95;;;;;;;;;;5064078;28;20043;-41
2023/01/19 10:46:48;;;;;;;3.35;1.80;;;;;;;;;;5066241;28;20102;-41
2023/01/19 10:49:30;;;;;;;5.75;2.38;;;;;;;;;;5064023;28;20079;-41
2023/01/19 10:51:57;;;;;;;5.70;2.00;;;;;;;;;;5064214;28;20107;-41
2023/01/19 10:54:25;;;;;;;4.25;1.60;;;;;;;;;;5066997;28;20598;-41
2023/01/19 10:56:56;;;;;;;4.30;1.90;;;;;;;;;;5065198;28;20103;-40
2023/01/19 10:59:49;;;;;;;3.00;2.20;;;;;;;;;;5059201;28;20147;-41
2023/01/19 11:02:26;;;;;;;3.17;2.22;;;;;;;;;;5061668;28;20051;-39
2023/01/19 11:05:13;;;;;;;4.25;3.03;;;;;;;;;;5062761;28;20503;-41
2023/01/19 11:07:38;;;;;;;14.43;8.00;;;;;;;;;;5053482;28;20130;-41
2023/01/19 11:10:16;;;;;;;6.38;3.53;;;;;;;;;;5067162;28;20504;-41
2023/01/19 11:12:44;;;;;;;32.53;20.15;;;;;;;;;;5065535;28;20037;-41
2023/01/19 11:15:22;;;;;;;12.25;6.65;;;;;;;;;;5064010;28;20551;-41
2023/01/19 11:17:48;;;;;;;77.10;43.67;;;;;;;;;;5061084;28;20039;-42
2023/01/19 11:20:23;;;;;;;65.75;37.67;;;;;;;;;;5061549;28;20016;-42
2023/01/19 11:23:06;;;;;;;15.30;10.15;;;;;;;;;;5065183;28;20036;-41
2023/01/19 11:25:34;;;;;;;22.83;13.82;;;;;;;;;;5054946;28;20021;-40
2023/01/19 11:28:00;;;;;;;4.40;3.10;;;;;;;;;;5064469;28;20044;-41
2023/01/19 11:30:26;;;;;;;1.73;1.63;;;;;;;;;;5064371;28;20401;-41
2023/01/19 11:32:52;;;;;;;4.68;3.65;;;;;;;;;;5061185;28;20113;-40
2023/01/19 11:35:34;;;;;;;6.20;4.18;;;;;;;;;;5064742;28;20032;-41
2023/01/19 11:38:11;;;;;;;3.00;2.08;;;;;;;;;;5065509;28;20036;-41
2023/01/19 11:40:37;;;;;;;7.70;4.35;;;;;;;;;;5066370;28;20062;-41
2023/01/19 11:43:03;;;;;;;1.90;1.73;;;;;;;;;;5064162;28;20037;-40
2023/01/19 11:45:30;;;;;;;20.02;12.27;;;;;;;;;;5064418;28;20017;-41
2023/01/19 11:47:56;;;;;;;7.20;5.22;;;;;;;;;;5061597;28;20192;-41
2023/01/19 11:50:22;;;;;;;14.23;4.30;;;;;;;;;;5042866;28;20032;-41
2023/01/19 11:52:54;;;;;;;5.05;2.08;;;;;;;;;;5061929;28;20050;-41
2023/01/19 11:55:41;;;;;;;11.07;7.30;;;;;;;;;;5064062;28;20384;-41
2023/01/19 11:58:13;;;;;;;1.95;1.70;;;;;;;;;;5060180;28;20049;-41
2023/01/19 12:00:44;;;;;;;10.07;6.30;;;;;;;;;;5066388;28;20055;-41
2023/01/19 12:03:24;;;;;;;5.97;4.13;;;;;;;;;;5060656;28;20056;-41
2023/01/19 12:05:55;;;;;;;13.90;6.72;;;;;;;;;;5062386;28;20036;-41
2023/01/19 12:08:25;;;;;;;3.75;2.97;;;;;;;;;;5063961;28;20045;-45
2023/01/19 12:10:54;;;;;;;9.02;4.70;;;;;;;;;;5062158;28;20058;-40
2023/01/19 12:13:25;;;;;;;2.30;2.03;;;;;;;;;;5058054;28;20037;-41
2023/01/19 12:16:11;;;;;;;4.50;2.30;;;;;;;;;;5061481;28;20028;-41
2023/01/19 12:18:47;;;;;;;9.88;3.05;;;;;;;;;;5063049;28;20783;-42
2023/01/19 12:21:13;;;;;;;9.45;4.95;;;;;;;;;;5063019;28;20067;-41
2023/01/19 12:23:41;;;;;;;5.13;2.80;;;;;;;;;;5061162;28;20124;-45
2023/01/19 12:26:42;;;;;;;5.78;2.75;;;;;;;;;;5060915;28;20035;-42
2023/01/19 12:29:16;;;;;;;3.45;3.00;;;;;;;;;;5060022;28;20519;-41
2023/01/19 12:31:41;;;;;;;6.22;3.67;;;;;;;;;;5065055;28;20040;-41
2023/01/19 12:34:29;;;;;;;4.28;2.25;;;;;;;;;;5059809;28;20048;-41
2023/01/19 12:37:02;;;;;;;11.10;4.90;;;;;;;;;;5058388;28;20546;-41
2023/01/19 12:39:28;;;;;;;1.40;1.30;;;;;;;;;;5055444;28;20056;-41
2023/01/19 12:42:13;;;;;;;5.03;3.13;;;;;;;;;;5058535;28;20045;-41
2023/01/19 12:44:40;;;;;;;4.90;2.75;;;;;;;;;;5060329;28;20045;-41
2023/01/19 12:47:14;;;;;;;2.72;1.58;;;;;;;;;;5068135;28;20542;-41
2023/01/19 12:49:57;;;;;;;5.78;2.20;;;;;;;;;;5061509;28;20087;-41
2023/01/19 12:52:34;;;;;;;2.28;1.88;;;;;;;;;;5068151;28;20082;-46
2023/01/19 12:55:05;;;;;;;5.07;1.70;;;;;;;;;;5067784;28;20350;-41
2023/01/19 12:57:38;;;;;;;8.32;6.07;;;;;;;;;;5068614;28;20083;-41
2023/01/19 13:00:06;;;;;;;9.85;6.03;;;;;;;;;;5066273;28;20047;-41
2023/01/19 13:02:45;;;;;;;7.85;4.18;;;;;;;;;;5064280;28;20074;-41
2023/01/19 13:05:31;;;;;;;4.75;2.63;;;;;;;;;;5066087;28;20029;-41
2023/01/19 13:08:07;;;;;;;9.85;5.68;;;;;;;;;;5066631;28;20106;-41
2023/01/19 13:11:11;;;;;;;6.55;3.38;;;;;;;;;;5063599;28;20041;-41
2023/01/19 13:13:42;;;;;;;3.28;2.20;;;;;;;;;;5065472;28;20500;-41
2023/01/19 13:16:26;;;;;;;6.65;2.83;;;;;;;;;;5065148;28;20036;-41
2023/01/19 13:18:55;;;;;;;4.85;2.38;;;;;;;;;;5066508;28;20056;-43
2023/01/19 13:21:47;;;;;;;3.65;2.42;;;;;;;;;;5067692;28;20027;-41
2023/01/19 13:24:23;;;;;;;3.80;2.22;;;;;;;;;;5064584;28;20044;-40
2023/01/19 13:26:49;;;;;;;3.83;2.50;;;;;;;;;;5066134;28;20039;-41
2023/01/19 13:29:17;;;;;;;5.22;2.22;;;;;;;;;;5065654;28;20151;-41
2023/01/19 13:31:43;;;;;;;5.75;3.42;;;;;;;;;;5068988;28;20070;-41
2023/01/19 13:34:28;;;;;;;2.55;2.35;;;;;;;;;;5066384;28;22403;-41
2023/01/19 13:36:58;;;;;;;2.13;1.48;;;;;;;;;;5068209;28;20034;-43
2023/01/19 13:39:35;;;;;;;8.68;3.00;;;;;;;;;;5063762;28;20060;-41
2023/01/19 13:42:05;;;;;;;3.10;2.42;;;;;;;;;;5049520;28;20032;-41
2023/01/19 13:44:39;;;;;;;14.77;6.75;;;;;;;;;;5066497;28;20045;-42
2023/01/19 13:47:09;;;;;;;7.35;3.35;;;;;;;;;;5066454;28;20091;-41
2023/01/19 13:49:43;;;;;;;6.25;2.33;;;;;;;;;;5066702;28;20041;-40
2023/01/19 13:52:13;;;;;;;9.50;4.60;;;;;;;;;;5068057;28;20127;-41
2023/01/19 13:54:48;;;;;;;5.57;2.95;;;;;;;;;;5064435;28;20072;-41
2023/01/19 13:57:25;;;;;;;4.95;1.85;;;;;;;;;;5068599;28;20036;-41
2023/01/19 14:00:00;;;;;;;2.38;1.58;;;;;;;;;;5065520;28;20071;-40
2023/01/19 14:02:25;;;;;;;2.20;1.98;;;;;;;;;;5065899;28;20099;-42
2023/01/19 14:04:51;;;;;;;7.25;3.30;;;;;;;;;;5065785;28;20112;-41
2023/01/19 14:07:24;;;;;;;4.05;2.13;;;;;;;;;;5064289;28;20023;-41
2023/01/19 14:10:15;;;;;;;2.58;1.83;;;;;;;;;;5064474;28;20038;-41
2023/01/19 14:12:41;;;;;;;2.47;1.40;;;;;;;;;;5057808;28;20040;-44
2023/01/19 14:15:12;;;;;;;2.58;1.98;;;;;;;;;;5064881;28;20412;-41
2023/01/19 14:17:39;;;;;;;0.80;0.80;;;;;;;;;;5065563;28;20043;-41
2023/01/19 14:20:06;;;;;;;3.97;1.30;;;;;;;;;;5066246;28;20020;-41
2023/01/19 14:22:45;;;;;;;0.88;0.88;;;;;;;;;;5065834;28;20037;-41
2023/01/19 14:25:42;;;;;;;2.40;1.42;;;;;;;;;;5067152;28;20557;-41
2023/01/19 14:28:27;;;;;;;1.80;1.10;;;;;;;;;;5056705;28;20171;-41
2023/01/19 14:31:01;;;;;;;3.65;1.50;;;;;;;;;;5065025;28;20119;-40
2023/01/19 14:33:45;;;;;;;2.67;1.35;;;;;;;;;;5064477;28;20515;-41
2023/01/19 14:36:23;;;;;;;1.42;1.30;;;;;;;;;;5064515;28;20048;-40
2023/01/19 14:38:50;;;;;;;2.25;1.42;;;;;;;;;;5061661;28;20457;-41
2023/01/19 14:41:51;;;;;;;2.65;2.05;;;;;;;;;;5065845;28;20068;-44
2023/01/19 14:44:24;;;;;;;1.70;1.23;;;;;;;;;;5064407;28;20131;-40
2023/01/19 14:46:49;;;;;;;2.22;2.03;;;;;;;;;;5062222;28;20159;-41
2023/01/19 14:49:23;;;;;;;2.85;1.85;;;;;;;;;;5063011;28;20800;-41
2023/01/19 14:51:49;;;;;;;2.58;2.00;;;;;;;;;;5064544;28;20032;-41
2023/01/19 14:54:17;;;;;;;1.77;1.67;;;;;;;;;;5065664;28;20041;-41
2023/01/19 14:56:43;;;;;;;2.45;1.73;;;;;;;;;;5064259;28;20117;-42
2023/01/19 14:59:12;;;;;;;3.35;1.50;;;;;;;;;;5062639;28;20498;-41
2023/01/19 15:01:37;;;;;;;2.00;1.90;;;;;;;;;;5066712;28;20028;-41
2023/01/19 15:04:02;;;;;;;1.73;1.30;;;;;;;;;;5065200;28;20043;-41
2023/01/19 15:06:28;;;;;;;1.92;1.83;;;;;;;;;;5064976;28;20027;-41